Queensborough, Washington
Current Conditions -  °F | °C
As of 7:53 AM on Thursday 23 Oct 2014 (Local Time) from KPAE Reporting Station
Overcast Overcast  
Wind Chill: 51°   Ceiling: 9000
Heat Index: 51°   Visibility: 10mi
Dew Point: 47°   Wind: 18mph
Humidity: 86%   Direction: 160°SSE
Pressure: 29.71"   Gusts: NA
Location:  47.7933°N, 122.207°W
Report Text: KPAE 231453Z 16016KT 10SM SCT060 OVC090 11/08 A2971 RMK AO2 RAE52 SLP062 P0002 60002 T01060083 50003
Loading
Personal Weather Stations






























Interactive Weather Map
Tropical Storm Tracking
New forecast layout! Learn more

10-Day Weather Forecast

Advertisements
Track Severe Weather on mobile